LFPB/LBG METAR and TAF weather

Enter ICAO airport designator
Station Type Date Time Source
LFPB METAR 2019/08/24 21:00 UTC NOAA

LFPB 242100Z AUTO 03004KT CAVOK 22/13 Q1017 NOSIG


Station Type Date Time Source
LFPB Decoded METAR 2019/08/24 21:00 UTC NOAA

Station name not available
Aug 24, 2019 - 05:00 PM EDT / 2019.08.24 2100 UTC
Wind: from the NNE (030 degrees) at 5 MPH (4 KT):0
Visibility: greater than 7 mile(s):0
Temperature: 71 F (22 C)
Dew Point: 55 F (13 C)
Relative Humidity: 56%
Pressure (altimeter): 30.03 in. Hg (1017 hPa)
ob: LFPB 242100Z AUTO 03004KT CAVOK 22/13 Q1017 NOSIG
cycle: 21

Station Type Date Time Source
LFPB TAF 2019/08/24 18:21 UTC NOAA

TAF LFPB 241700Z 2418/2518 10005KT CAVOK

Example: see airport list